• Join FlightAware (Why Join?)
  • Login
  • US Flag 
07:09AM EDT


 

Airport Tracker/Info


-or-


 

Live Flight TrackerFlight Track Log ✈ DAL3676 ✈ 22-Apr-2013 ✈ KHSV - KDTW

Flight Track Log - Related Links

Times and Time Zones

All times are in EDT time to prevent confusion due to time zone crossing. See the DAL3676 flight status page for this flight to view local times or setup timezone preferences in your user account.

Time Position Orientation Groundspeed Altitude Reporting Facility
EDT Latitude Longitude Course Direction KTS MPH feet Rate Location/Type
07:06PM 34.6119 -86.7233 North 121 139 3,700  Level Memphis Center
07:07PM 34.6806 -86.7156 North 139 160 5,900 2,700 Climbing Memphis Center
07:08PM 35.0252 -86.7500 North  Level FlightAware Approximate
07:08PM 34.7597 -86.7119 North 208 239 9,100  Level Memphis Center
07:09PM 35.1231 -86.7410 North  Level FlightAware Approximate
07:09PM 34.8453 -86.7108 North 253 291 11,400  Level Memphis Center
07:10PM 35.2211 -86.7312 North  Level FlightAware Approximate
07:10PM 34.9369 -86.7069 North 298 343 13,200  Level Memphis Center
07:11PM 35.3190 -86.7214 North  Level FlightAware Approximate
07:11PM 35.0392 -86.7075 360° North 335 386 14,800  Level Memphis Center
07:12PM 35.1308 -86.7061 North 362 417 16,600 1,680 Climbing Memphis Center
07:13PM 35.2478 -86.7061 360° North 371 427 18,200 1,680 Climbing Memphis Center
07:14PM 35.3519 -86.7039 North 376 433 20,000 1,800 Climbing Memphis Center
07:15PM 35.4542 -86.7022 North 376 433 21,900 1,800 Climbing Memphis Center
07:16PM 35.5583 -86.6975 North 365 420 23,600 1,560 Climbing Memphis Center
07:17PM 35.6583 -86.6956 North 365 420 25,100 1,380 Climbing Memphis Center
07:18PM 35.7644 -86.6933 North 370 426 26,400 1,200 Climbing Memphis Center
07:19PM 35.8708 -86.6914 North 370 426 27,600 1,140 Climbing Memphis Center
07:20PM 35.9728 -86.6867 North 370 426 28,700 900 Climbing Memphis Center
07:21PM 36.0811 -86.6844 North 370 426 29,400 660 Climbing Memphis Center
07:22PM 36.1858 -86.6925 356° North 375 432 30,100 660 Climbing Memphis Center
07:23PM 36.2925 -86.7058 354° North 375 432 30,800 420 Climbing Memphis Center
07:24PM 36.4014 -86.7242 352° North 389 448 31,000 60 Climbing Memphis Center
07:25PM 36.5125 -86.7475 350° North 396 456 31,000  Level Memphis Center
07:26PM 36.6214 -86.7686 351° North 396 456 31,000 540 Level Memphis Center
07:27PM 36.7342 -86.7686 360° North 401 461 32,100 960 Climbing Memphis Center
07:28PM 36.8419 -86.7561 North 396 456 33,000 420 Climbing Memphis Center
07:29PM 36.9542 -86.7406 North 396 456 33,000  Level Memphis Center
07:31PM 37.1625 -86.7142 North 405 466 33,000  Level Indianapolis Center
07:32PM 37.2964 -86.6967 North 410 472 33,000  Level Indianapolis Center
07:33PM 37.4122 -86.6822 North 413 475 33,000  Level Indianapolis Center
07:34PM 37.5264 -86.6764 North 409 471 33,000  Level Indianapolis Center
07:35PM 37.6058 -86.7428 327° Northwest 369 425 33,000  Level Indianapolis Center
07:36PM 37.6650 -86.8492 305° West 364 419 33,000  Level Indianapolis Center
07:37PM 37.7381 -86.9681 308° West 357 411 33,000  Level Indianapolis Center
07:38PM 37.8003 -87.0636 310° West 350 403 33,000  Level Indianapolis Center
07:39PM 37.8928 -87.1108 338° Northwest 357 411 33,000  Level Indianapolis Center
07:40PM 37.9878 -87.1517 341° North 357 411 33,000  Level Indianapolis Center
07:41PM 38.0819 -87.1956 340° North 357 411 33,000  Level Indianapolis Center
07:42PM 38.1800 -87.2322 344° North 360 414 33,000  Level Indianapolis Center
07:43PM 38.2889 -87.1967 14° North 385 443 33,000  Level Indianapolis Center
07:44PM 38.3908 -87.1428 23° Northeast 390 449 33,000  Level Indianapolis Center
07:45PM 38.4922 -87.0872 23° Northeast 391 450 33,000  Level Indianapolis Center
07:46PM 38.5936 -87.0339 22° Northeast 389 448 33,000  Level Indianapolis Center
07:47PM 38.6942 -86.9797 23° Northeast 388 447 33,000  Level Indianapolis Center
07:48PM 38.7944 -86.9261 23° Northeast 389 448 33,000  Level Indianapolis Center
07:49PM 38.8925 -86.8711 24° Northeast 385 443 33,000  Level Indianapolis Center
07:50PM 38.9944 -86.8178 22° Northeast 393 452 33,000 -120 Level Indianapolis Center
07:51PM 39.0989 -86.7608 23° Northeast 403 464 32,800 -360 Descending Indianapolis Center
07:52PM 39.2072 -86.7019 23° Northeast 418 481 32,300 -540 Descending Indianapolis Center
07:53PM 39.3411 -86.6300 23° Northeast 432 497 31,700 -540 Descending Indianapolis Center
07:54PM 39.4525 -86.5675 23° Northeast 434 499 31,200 -360 Descending Indianapolis Center
07:55PM 39.5650 -86.5069 23° Northeast 437 503 31,000 -120 Descending Indianapolis Center
07:56PM 39.6767 -86.4433 24° Northeast 437 503 31,000  Level Indianapolis Center
07:57PM 39.7883 -86.3817 23° Northeast 435 501 31,000  Level Indianapolis Center
07:58PM 39.8919 -86.2883 35° Northeast 450 518 31,000  Level Indianapolis Center
07:59PM 39.9519 -86.2297 37° Northeast 452 520 31,000  Level Chicago Center
08:00PM 40.0519 -86.1306 37° Northeast 454 522 31,000  Level Chicago Center
08:00PM 40.0925 -86.0900 37° Northeast 452 520 31,000  Level Indianapolis Center
08:01PM 40.1528 -86.0294 38° Northeast 457 526 31,000  Level Chicago Center
08:02PM 40.2525 -85.9292 37° Northeast 454 522 31,000  Level Chicago Center
08:03PM 40.3717 -85.8108 37° Northeast 451 519 31,000  Level Chicago Center
08:04PM 40.4686 -85.7117 38° Northeast 446 513 31,000  Level Chicago Center
08:05PM 40.5644 -85.6150 37° Northeast 438 504 31,000 -840 Level Chicago Center
08:06PM 40.6569 -85.5178 39° Northeast 431 496 29,400 -2,040 Descending Chicago Center
08:07PM 40.7472 -85.4269 37° Northeast 418 481 26,800 -2,520 Descending Chicago Center
08:08PM 40.8358 -85.3358 38° Northeast 408 470 24,300 -2,820 Descending Chicago Center
08:09PM 40.9467 -85.2225 38° Northeast 419 482 21,100 -1,620 Descending Chicago Center
08:10PM 41.0336 -85.1297 39° Northeast 411 473 21,000 -60 Descending Chicago Center
08:11PM 41.1186 -85.0394 39° Northeast 399 459 21,000  Level Chicago Center
08:12PM 41.2067 -84.9436 39° Northeast 408 470 21,000  Level Chicago Center
08:13PM 41.2950 -84.8486 39° Northeast 412 474 21,000  Level Chicago Center
08:14PM 41.3831 -84.7542 39° Northeast 411 473 21,000  Level Chicago Center
08:15PM 41.4878 -84.6403 39° Northeast 409 471 21,000  Level Chicago Center
08:16PM 41.5461 -84.5786 38° Northeast 406 467 21,000  Level Cleveland Center
08:17PM 41.6331 -84.4842 39° Northeast 406 467 21,000 -1,200 Level Cleveland Center
08:18PM 41.7036 -84.3686 51° Northeast 401 461 18,700 -2,460 Descending Cleveland Center
08:19PM 41.7358 -84.2731 66° East 385 443 16,700 -2,760 Descending Cleveland Center
08:20PM 41.7950 -84.1150 63° Northeast 375 432 13,200 -2,160 Descending Cleveland Center
08:21PM 41.8444 -83.9978 60° Northeast 363 418 12,000 -600 Descending Cleveland Center
08:22PM 41.9219 -83.9128 39° Northeast 350 403 12,000  Level Cleveland Center
08:23PM 42.0103 -83.8139 40° Northeast 365 420 12,000  Level Cleveland Center
08:24PM 42.0750 -83.7361 42° Northeast 357 411 12,000  Level Cleveland Center
08:24PM 42.0967 -83.7092 43° Northeast 368 423 12,000  Level Cleveland Center
08:25PM 42.1675 -83.6314 39° Northeast 357 411 12,000  Level Cleveland Center
08:26PM 42.2061 -83.5883 40° Northeast 348 400 12,000 -360 Level Cleveland Center
08:26PM 42.2383 -83.5533 39° Northeast 258 297 11,600 -1,440 Descending Cleveland Center
08:27PM 42.2728 -83.5128 41° Northeast 285 328 10,600 -1,500 Descending Cleveland Center
08:27PM 42.2939 -83.4969 29° Northeast 256 295 10,100 -1,800 Descending Cleveland Center
08:28PM 42.3364 -83.4653 29° Northeast 254 292 8,800 -2,280 Descending Cleveland Center
08:29PM 42.4233 -83.4100 25° Northeast 253 291 5,500 -2,100 Descending Cleveland Center
08:30PM 42.4169 -83.3311 96° East 232 267 4,100 -780 Descending Cleveland Center
08:31PM 42.3717 -83.3011 154° Southeast 173 199 4,000 -120 Descending Cleveland Center